createdAt,value
2018-05-31T00:01:42.995Z,3.80
2018-05-31T00:04:10.446Z,4.50
2018-05-31T00:06:37.888Z,4.07
2018-05-31T00:09:05.319Z,4.27
2018-05-31T00:11:32.762Z,4.20
2018-05-31T00:14:00.969Z,4.00
2018-05-31T00:16:28.420Z,4.00
2018-05-31T00:18:55.854Z,4.63
2018-05-31T00:21:24.071Z,4.57
2018-05-31T00:23:51.508Z,4.27
2018-05-31T00:26:18.983Z,4.80
2018-05-31T00:28:46.411Z,4.70
2018-05-31T00:31:13.853Z,4.83
2018-05-31T00:33:42.059Z,5.00
2018-05-31T00:36:09.511Z,6.00
2018-05-31T00:38:36.952Z,5.80
2018-05-31T00:41:05.172Z,5.93
2018-05-31T00:43:32.603Z,6.00
2018-05-31T00:46:00.058Z,5.20
2018-05-31T00:48:27.494Z,6.07
2018-05-31T00:50:55.708Z,7.10
2018-05-31T00:53:23.147Z,5.60
2018-05-31T00:56:02.620Z,6.37
2018-05-31T00:58:30.055Z,5.70
2018-05-31T01:00:57.503Z,5.40
2018-05-31T01:03:24.938Z,5.90
2018-05-31T01:05:53.167Z,6.00
2018-05-31T01:08:20.598Z,5.70
2018-05-31T01:10:48.048Z,5.90
2018-05-31T01:13:15.495Z,6.20
2018-05-31T01:15:42.938Z,6.10
2018-05-31T01:18:11.139Z,5.27
2018-05-31T01:20:38.582Z,5.70
2018-05-31T01:23:06.022Z,5.13
2018-05-31T01:25:34.238Z,5.30
2018-05-31T01:28:01.681Z,4.80
2018-05-31T01:30:29.116Z,5.70
2018-05-31T01:32:57.330Z,5.97
2018-05-31T01:35:24.773Z,5.40
2018-05-31T01:37:52.224Z,6.33
2018-05-31T01:40:19.657Z,5.67
2018-05-31T01:42:47.871Z,4.87
2018-05-31T01:45:15.310Z,5.37
2018-05-31T01:47:42.766Z,5.73
2018-05-31T01:50:10.198Z,5.03
2018-05-31T01:52:38.411Z,4.53
2018-05-31T01:55:05.847Z,4.80
2018-05-31T01:57:34.059Z,4.63
2018-05-31T02:00:01.500Z,5.30
2018-05-31T02:02:28.947Z,5.90
2018-05-31T02:04:56.386Z,5.10
2018-05-31T02:07:24.599Z,6.10
2018-05-31T02:09:52.039Z,6.00
2018-05-31T02:12:19.496Z,5.00
2018-05-31T02:14:46.936Z,5.60
2018-05-31T02:17:15.149Z,5.90
2018-05-31T02:19:42.582Z,5.03
2018-05-31T02:22:10.025Z,5.67
2018-05-31T02:24:38.227Z,5.40
2018-05-31T02:27:05.683Z,5.40
2018-05-31T02:29:33.126Z,4.53
2018-05-31T02:32:00.583Z,5.50
2018-05-31T02:34:28.018Z,4.93
2018-05-31T02:36:56.226Z,5.40
2018-05-31T02:39:23.674Z,5.73
2018-05-31T02:41:51.115Z,5.50
2018-05-31T02:44:19.331Z,5.47
2018-05-31T02:46:46.775Z,5.97
2018-05-31T02:49:14.231Z,5.67
2018-05-31T02:51:41.681Z,6.63
2018-05-31T02:54:09.131Z,6.17
2018-05-31T02:56:36.570Z,5.93
2018-05-31T02:59:04.785Z,5.23
2018-05-31T03:01:32.222Z,5.00
2018-05-31T03:03:59.661Z,5.37
2018-05-31T03:06:27.873Z,5.77
2018-05-31T03:08:55.314Z,5.43
2018-05-31T03:11:22.752Z,5.70
2018-05-31T03:13:50.963Z,5.53
2018-05-31T03:16:18.398Z,6.50
2018-05-31T03:18:45.844Z,5.90
2018-05-31T03:21:14.046Z,5.00
2018-05-31T03:23:41.502Z,6.27
2018-05-31T03:26:08.944Z,6.90
2018-05-31T03:28:37.205Z,6.70
2018-05-31T03:31:05.419Z,7.00
2018-05-31T03:33:32.868Z,7.07
2018-05-31T03:36:00.306Z,7.50
2018-05-31T03:38:27.768Z,7.23
2018-05-31T03:40:55.203Z,6.77
2018-05-31T03:43:23.403Z,6.60
2018-05-31T03:45:50.852Z,6.37
2018-05-31T03:48:18.294Z,6.27
2018-05-31T03:50:46.505Z,6.00
2018-05-31T03:53:13.950Z,6.47
2018-05-31T03:55:41.400Z,6.30
2018-05-31T03:58:09.616Z,7.77
2018-05-31T04:00:37.060Z,6.00
2018-05-31T04:03:04.502Z,6.23
2018-05-31T04:05:31.945Z,6.73
2018-05-31T04:07:59.389Z,7.03
2018-05-31T04:10:27.595Z,7.10
2018-05-31T04:12:55.036Z,6.23
2018-05-31T04:15:22.481Z,6.30
2018-05-31T04:17:50.686Z,6.63
2018-05-31T04:20:18.143Z,7.00
2018-05-31T04:22:45.576Z,5.83
2018-05-31T04:25:13.024Z,6.90
2018-05-31T04:27:41.231Z,6.77
2018-05-31T04:30:08.682Z,7.20
2018-05-31T04:32:36.127Z,6.47
2018-05-31T04:35:03.570Z,7.10
2018-05-31T04:37:31.772Z,6.60
2018-05-31T04:39:59.222Z,7.40
2018-05-31T04:42:26.671Z,7.63
2018-05-31T04:44:54.887Z,7.23
2018-05-31T04:47:22.327Z,6.87
2018-05-31T04:49:49.788Z,7.63
2018-05-31T04:52:17.230Z,8.17
2018-05-31T04:54:44.661Z,7.70
2018-05-31T04:57:12.876Z,8.97
2018-05-31T04:59:40.315Z,8.53
2018-05-31T05:02:07.762Z,8.40
2018-05-31T05:04:35.964Z,8.30
2018-05-31T05:07:03.415Z,8.90
2018-05-31T05:09:30.859Z,9.23
2018-05-31T05:11:58.309Z,8.37
2018-05-31T05:14:25.758Z,10.07
2018-05-31T05:16:53.971Z,8.93
2018-05-31T05:19:21.419Z,9.90
2018-05-31T05:21:48.872Z,10.20
2018-05-31T05:24:16.310Z,8.80
2018-05-31T05:26:44.534Z,10.73
2018-05-31T05:29:11.975Z,9.90
2018-05-31T05:31:39.422Z,10.40
2018-05-31T05:34:06.870Z,10.27
2018-05-31T05:36:34.327Z,10.23
2018-05-31T05:39:01.771Z,9.90
2018-05-31T05:41:29.986Z,9.20
2018-05-31T05:43:57.431Z,9.03
2018-05-31T05:46:24.878Z,8.63
2018-05-31T05:48:52.318Z,8.70
2018-05-31T05:51:20.540Z,9.90
2018-05-31T05:53:48.743Z,9.03
2018-05-31T05:56:16.196Z,9.10
2018-05-31T05:58:43.635Z,10.07
2018-05-31T06:01:11.090Z,10.10
2018-05-31T06:03:38.535Z,10.57
2018-05-31T06:06:05.991Z,10.10
2018-05-31T06:08:33.434Z,9.80
2018-05-31T06:11:00.888Z,10.13
2018-05-31T06:13:28.326Z,9.40
2018-05-31T06:15:55.775Z,8.67
2018-05-31T06:18:23.996Z,8.67
2018-05-31T06:20:51.438Z,8.20
2018-05-31T06:23:18.891Z,8.60
2018-05-31T06:25:46.342Z,9.30
2018-05-31T06:28:13.786Z,7.97
2018-05-31T06:30:41.222Z,8.93
2018-05-31T06:33:08.675Z,9.30
2018-05-31T06:35:36.111Z,8.67
2018-05-31T06:38:03.558Z,8.67
2018-05-31T06:40:30.993Z,8.83
2018-05-31T06:42:58.478Z,8.43
2018-05-31T06:45:25.887Z,7.30
2018-05-31T06:47:53.333Z,7.60
2018-05-31T06:50:21.544Z,7.97
2018-05-31T06:52:48.994Z,8.37
2018-05-31T06:55:16.442Z,8.10
2018-05-31T06:57:44.644Z,8.70
2018-05-31T07:00:12.085Z,9.10
2018-05-31T07:02:39.534Z,8.87
2018-05-31T07:05:06.976Z,9.03
2018-05-31T07:07:35.195Z,10.37
2018-05-31T07:10:02.647Z,10.07
2018-05-31T07:12:30.083Z,9.10
2018-05-31T07:14:57.541Z,10.13
2018-05-31T07:17:24.982Z,9.30
2018-05-31T07:19:53.194Z,8.67
2018-05-31T07:22:20.686Z,9.40
2018-05-31T07:24:48.140Z,8.87
2018-05-31T07:27:15.592Z,8.43
2018-05-31T07:29:43.027Z,8.90
2018-05-31T07:32:10.465Z,7.70
2018-05-31T07:34:37.913Z,7.80
2018-05-31T07:37:05.354Z,7.80
2018-05-31T07:39:33.566Z,8.23
2018-05-31T07:42:01.001Z,7.30
2018-05-31T07:44:28.459Z,7.10
2018-05-31T07:46:55.898Z,6.20
2018-05-31T07:49:24.111Z,6.93
2018-05-31T07:51:51.543Z,7.90
2018-05-31T07:54:18.991Z,6.77
2018-05-31T07:56:47.231Z,6.77
2018-05-31T07:59:14.639Z,7.00
2018-05-31T08:01:42.074Z,6.60
2018-05-31T08:04:10.287Z,7.43
2018-05-31T08:06:37.715Z,6.73
2018-05-31T08:09:05.934Z,7.00
2018-05-31T08:11:33.367Z,8.43
2018-05-31T08:14:00.817Z,7.97
2018-05-31T08:16:28.255Z,7.30
2018-05-31T08:18:56.474Z,7.67
2018-05-31T08:21:23.915Z,7.13
2018-05-31T08:23:51.371Z,7.17
2018-05-31T08:26:18.804Z,7.60
2018-05-31T08:28:47.003Z,6.60
2018-05-31T08:31:14.449Z,7.47
2018-05-31T08:33:41.900Z,5.80
2018-05-31T08:36:10.101Z,6.73
2018-05-31T08:38:37.543Z,6.13
2018-05-31T08:41:04.988Z,7.13
2018-05-31T08:43:32.424Z,5.73
2018-05-31T08:45:59.866Z,7.63
2018-05-31T08:48:27.307Z,6.93
2018-05-31T08:50:54.747Z,6.83
2018-05-31T08:53:22.180Z,6.43
2018-05-31T08:55:49.628Z,6.93
2018-05-31T08:58:17.823Z,7.43
2018-05-31T09:00:45.279Z,6.50
2018-05-31T09:03:12.747Z,6.00
2018-05-31T09:05:40.178Z,7.00
2018-05-31T09:08:07.620Z,7.33
2018-05-31T09:10:35.829Z,6.83
2018-05-31T09:13:03.275Z,6.73
2018-05-31T09:15:30.715Z,6.87
2018-05-31T09:17:58.922Z,7.57
2018-05-31T09:20:26.359Z,6.40
2018-05-31T09:22:53.795Z,7.30
2018-05-31T09:25:22.009Z,6.10
2018-05-31T09:27:49.452Z,6.50
2018-05-31T09:30:16.896Z,7.07
2018-05-31T09:32:45.090Z,6.90
2018-05-31T09:35:12.555Z,7.10
2018-05-31T09:37:39.986Z,7.30
2018-05-31T09:40:07.427Z,6.80
2018-05-31T09:42:35.641Z,6.73
2018-05-31T09:45:03.105Z,6.13
2018-05-31T09:47:30.556Z,6.97
2018-05-31T09:49:57.994Z,5.80
2018-05-31T09:52:25.438Z,5.50
2018-05-31T09:54:53.640Z,6.00
2018-05-31T09:57:21.082Z,6.77
2018-05-31T09:59:48.518Z,7.10
2018-05-31T10:02:16.734Z,5.87
2018-05-31T10:04:44.159Z,6.27
2018-05-31T10:07:12.370Z,7.10
2018-05-31T10:09:39.807Z,6.33
2018-05-31T10:12:07.255Z,6.63
2018-05-31T10:14:35.454Z,7.30
2018-05-31T10:17:02.920Z,6.40
2018-05-31T10:19:30.340Z,7.37
2018-05-31T10:21:58.551Z,8.03
2018-05-31T10:24:25.978Z,7.30
2018-05-31T10:26:53.422Z,8.37
2018-05-31T10:29:21.623Z,6.80
2018-05-31T10:31:49.068Z,5.30
2018-05-31T10:34:16.506Z,5.10
2018-05-31T10:36:44.723Z,5.23
2018-05-31T10:39:12.152Z,4.67
2018-05-31T10:41:40.355Z,5.23
2018-05-31T10:44:07.802Z,4.57
2018-05-31T10:46:35.250Z,5.17
2018-05-31T10:49:03.751Z,7.97
2018-05-31T10:51:31.178Z,7.07
2018-05-31T10:53:59.385Z,6.83
2018-05-31T10:56:26.818Z,6.47
2018-05-31T10:58:54.268Z,6.93
2018-05-31T11:01:22.470Z,7.80
2018-05-31T11:03:49.942Z,8.23
2018-05-31T11:06:17.382Z,6.20
2018-05-31T11:08:44.818Z,5.17
2018-05-31T11:11:12.267Z,5.50
2018-05-31T11:13:40.471Z,6.10
2018-05-31T11:16:07.907Z,4.87
2018-05-31T11:18:36.120Z,5.40
2018-05-31T11:21:03.557Z,4.80
2018-05-31T11:23:31.002Z,5.97
2018-05-31T11:25:58.431Z,6.40
2018-05-31T11:28:25.874Z,7.60
2018-05-31T11:30:53.312Z,6.87
2018-05-31T11:33:20.750Z,7.13
2018-05-31T11:35:48.186Z,7.30
2018-05-31T11:38:15.633Z,6.07
2018-05-31T11:40:43.840Z,6.43
2018-05-31T11:43:11.297Z,7.00
2018-05-31T11:45:38.726Z,7.23
2018-05-31T11:48:06.944Z,5.90
2018-05-31T11:50:34.377Z,6.13
2018-05-31T11:53:01.811Z,6.13
2018-05-31T11:55:30.026Z,5.70
2018-05-31T11:57:57.458Z,5.77
2018-05-31T12:00:24.934Z,6.07
2018-05-31T12:02:53.106Z,4.63
2018-05-31T12:05:20.554Z,5.20
2018-05-31T12:07:47.989Z,4.90
2018-05-31T12:10:16.215Z,5.10
2018-05-31T12:12:43.647Z,5.10
2018-05-31T12:15:11.095Z,4.53
2018-05-31T12:17:38.573Z,5.63
2018-05-31T12:20:06.757Z,4.40
2018-05-31T12:22:35.089Z,5.07
2018-05-31T12:25:03.296Z,4.73
2018-05-31T12:27:30.744Z,4.90
2018-05-31T12:29:58.186Z,4.60
2018-05-31T12:32:25.618Z,5.00
2018-05-31T12:34:53.840Z,4.50
2018-05-31T12:37:21.276Z,5.30
2018-05-31T12:39:48.722Z,5.10
2018-05-31T12:42:16.928Z,4.97
2018-05-31T12:44:44.383Z,6.07
2018-05-31T12:47:11.829Z,5.20
2018-05-31T12:49:39.267Z,4.70
2018-05-31T12:52:07.470Z,5.07
2018-05-31T12:54:34.918Z,5.07
2018-05-31T12:57:02.358Z,4.90
2018-05-31T12:59:30.578Z,4.80
2018-05-31T13:01:58.011Z,4.30
2018-05-31T13:04:25.508Z,4.40
2018-05-31T13:06:52.906Z,5.10
2018-05-31T13:09:21.107Z,5.03
2018-05-31T13:11:48.551Z,5.30
2018-05-31T13:14:15.997Z,5.50
2018-05-31T13:16:44.206Z,5.23
2018-05-31T13:19:11.643Z,5.57
2018-05-31T13:21:39.098Z,5.83
2018-05-31T13:24:06.534Z,5.80
2018-05-31T13:26:34.751Z,5.33
2018-05-31T13:29:02.178Z,5.40
2018-05-31T13:31:29.635Z,4.80
2018-05-31T13:33:57.071Z,6.00
2018-05-31T13:36:25.280Z,5.03
2018-05-31T13:38:52.715Z,5.33
2018-05-31T13:41:20.926Z,5.20
2018-05-31T13:43:48.372Z,5.40
2018-05-31T13:46:15.810Z,5.50
2018-05-31T13:48:43.247Z,5.10
2018-05-31T13:51:10.690Z,4.50
2018-05-31T13:53:38.127Z,4.97
2018-05-31T13:56:05.576Z,4.80
2018-05-31T13:58:33.010Z,5.43
2018-05-31T14:01:00.455Z,4.20
2018-05-31T14:03:27.890Z,4.70
2018-05-31T14:05:56.090Z,4.47
2018-05-31T14:08:23.534Z,4.33
2018-05-31T14:10:51.730Z,5.00
2018-05-31T14:13:19.174Z,4.93
2018-05-31T14:15:46.609Z,5.13
2018-05-31T14:18:14.818Z,4.50
2018-05-31T14:20:42.254Z,4.03
2018-05-31T14:23:10.476Z,4.47
2018-05-31T14:25:37.912Z,4.73
2018-05-31T14:28:05.359Z,4.33
2018-05-31T14:30:32.803Z,4.30
2018-05-31T14:33:01.018Z,4.20
2018-05-31T14:35:28.451Z,4.70
2018-05-31T14:37:55.902Z,4.33
2018-05-31T14:40:23.345Z,4.33
2018-05-31T14:42:51.551Z,3.90
2018-05-31T14:45:18.991Z,4.40
2018-05-31T14:47:46.431Z,4.23
2018-05-31T14:50:14.636Z,4.47
2018-05-31T14:52:42.084Z,5.37
2018-05-31T14:55:09.514Z,5.27
2018-05-31T14:57:37.730Z,4.90
2018-05-31T15:00:05.179Z,5.80
2018-05-31T15:02:32.626Z,5.53
2018-05-31T15:05:00.064Z,5.03
2018-05-31T15:07:28.274Z,4.80
2018-05-31T15:09:55.714Z,4.97
2018-05-31T15:12:23.178Z,4.53
2018-05-31T15:14:50.615Z,4.73
2018-05-31T15:17:18.812Z,4.73
2018-05-31T15:19:46.255Z,4.70
2018-05-31T15:22:13.940Z,4.43
2018-05-31T15:24:41.376Z,4.00
2018-05-31T15:27:08.816Z,3.73
2018-05-31T15:29:37.024Z,4.60
2018-05-31T15:32:04.459Z,4.40
2018-05-31T15:34:32.673Z,3.97
2018-05-31T15:37:00.110Z,4.17
2018-05-31T15:39:27.557Z,3.73
2018-05-31T15:41:54.993Z,4.80
2018-05-31T15:44:22.441Z,4.10
2018-05-31T15:46:49.870Z,5.00
2018-05-31T15:49:17.319Z,6.00
2018-05-31T15:51:44.755Z,6.20
2018-05-31T15:54:12.530Z,4.53
2018-05-31T15:56:39.969Z,5.10
2018-05-31T15:59:07.415Z,3.67
2018-05-31T16:01:35.623Z,3.90
2018-05-31T16:04:03.071Z,4.63
2018-05-31T16:06:30.507Z,4.33
2018-05-31T16:08:57.954Z,3.97
2018-05-31T16:11:26.167Z,4.27
2018-05-31T16:13:53.616Z,4.03
2018-05-31T16:16:21.058Z,3.70
2018-05-31T16:18:48.494Z,4.13
2018-05-31T16:21:16.705Z,4.27
2018-05-31T16:23:44.147Z,3.67
2018-05-31T16:26:11.574Z,3.80
2018-05-31T16:28:39.795Z,4.37
2018-05-31T16:31:07.233Z,4.57
2018-05-31T16:33:34.698Z,4.00
2018-05-31T16:36:02.132Z,4.20
2018-05-31T16:38:30.338Z,3.87
2018-05-31T16:40:57.791Z,5.37
2018-05-31T16:43:25.219Z,3.50
2018-05-31T16:45:53.434Z,4.27
2018-05-31T16:48:20.885Z,4.10
2018-05-31T16:50:48.331Z,4.67
2018-05-31T16:53:15.769Z,4.33
2018-05-31T16:55:43.980Z,4.30
2018-05-31T16:58:11.414Z,4.37
2018-05-31T17:00:38.859Z,4.20
2018-05-31T17:03:07.062Z,4.00
2018-05-31T17:05:34.518Z,4.20
2018-05-31T17:08:01.947Z,4.17
2018-05-31T17:10:30.169Z,4.40
2018-05-31T17:12:57.594Z,4.17
2018-05-31T17:15:25.041Z,4.13
2018-05-31T17:17:53.251Z,4.60
2018-05-31T17:20:20.702Z,4.70
2018-05-31T17:22:48.136Z,4.50
2018-05-31T17:25:15.578Z,4.37
2018-05-31T17:27:43.788Z,4.70
2018-05-31T17:30:11.235Z,4.40
2018-05-31T17:32:38.674Z,4.40
2018-05-31T17:35:06.894Z,4.23
2018-05-31T17:37:34.335Z,4.60
2018-05-31T17:40:01.783Z,4.03
2018-05-31T17:42:29.216Z,3.90
2018-05-31T17:44:57.431Z,4.37
2018-05-31T17:47:24.866Z,3.90
2018-05-31T17:49:52.310Z,3.93
2018-05-31T17:52:20.513Z,4.77
2018-05-31T17:54:47.967Z,5.20
2018-05-31T17:57:15.403Z,4.27
2018-05-31T17:59:42.847Z,4.63
2018-05-31T18:02:11.041Z,5.07
2018-05-31T18:04:38.502Z,4.83
2018-05-31T18:07:05.933Z,4.33
2018-05-31T18:09:34.145Z,4.20
2018-05-31T18:12:01.592Z,4.00
2018-05-31T18:14:29.077Z,3.73
2018-05-31T18:16:57.238Z,4.23
2018-05-31T18:19:24.667Z,4.03
2018-05-31T18:21:52.887Z,4.10
2018-05-31T18:24:20.318Z,4.50
2018-05-31T18:26:47.764Z,5.03
2018-05-31T18:29:15.197Z,4.97
2018-05-31T18:31:43.414Z,5.10
2018-05-31T18:34:10.847Z,4.03
2018-05-31T18:36:38.290Z,4.40
2018-05-31T18:39:06.486Z,4.80
2018-05-31T18:41:33.934Z,5.53
2018-05-31T18:44:01.370Z,4.50
2018-05-31T18:46:28.806Z,5.03
2018-05-31T18:48:56.246Z,5.40
2018-05-31T18:51:23.704Z,5.33
2018-05-31T18:53:51.139Z,5.20
2018-05-31T18:56:18.584Z,5.10
2018-05-31T18:58:46.016Z,5.97
2018-05-31T19:01:13.460Z,6.20
2018-05-31T19:03:40.892Z,6.00
2018-05-31T19:06:08.344Z,5.37
2018-05-31T19:08:35.775Z,5.30
2018-05-31T19:11:03.219Z,6.00
2018-05-31T19:13:37.133Z,7.00
2018-05-31T19:16:04.590Z,6.67
2018-05-31T19:18:37.718Z,6.60
2018-05-31T19:21:05.174Z,6.40
2018-05-31T19:23:32.602Z,6.17
2018-05-31T19:26:00.052Z,6.60
2018-05-31T19:28:27.499Z,6.57
2018-05-31T19:31:01.345Z,6.07
2018-05-31T19:33:28.792Z,6.43
2018-05-31T19:36:01.780Z,5.80
2018-05-31T19:38:29.210Z,6.87
2018-05-31T19:40:57.428Z,6.10
2018-05-31T19:43:30.500Z,6.23
2018-05-31T19:45:57.942Z,5.50
2018-05-31T19:48:25.374Z,6.10
2018-05-31T19:50:53.588Z,5.63
2018-05-31T19:53:26.639Z,6.13
2018-05-31T19:55:54.856Z,5.77
2018-05-31T19:58:28.047Z,5.73
2018-05-31T20:01:01.198Z,6.60
2018-05-31T20:03:36.752Z,5.80
2018-05-31T20:06:04.971Z,5.50
2018-05-31T20:08:32.411Z,5.40
2018-05-31T20:10:59.856Z,7.40
2018-05-31T20:13:27.299Z,6.20
2018-05-31T20:15:55.521Z,6.07
2018-05-31T20:18:22.978Z,6.17
2018-05-31T20:20:50.433Z,5.97
2018-05-31T20:23:17.867Z,5.53
2018-05-31T20:25:45.310Z,6.67
2018-05-31T20:28:13.527Z,7.20
2018-05-31T20:30:41.000Z,6.43
2018-05-31T20:33:08.420Z,5.63
2018-05-31T20:35:35.861Z,6.30
2018-05-31T20:38:03.302Z,5.93
2018-05-31T20:40:31.511Z,5.50
2018-05-31T20:42:58.950Z,5.70
2018-05-31T20:45:26.387Z,4.60
2018-05-31T20:47:54.595Z,5.43
2018-05-31T20:50:22.044Z,5.13
2018-05-31T20:52:49.492Z,5.30
2018-05-31T20:55:16.928Z,5.57
2018-05-31T20:57:45.139Z,5.30
2018-05-31T21:00:12.580Z,5.73
2018-05-31T21:02:40.033Z,5.30
2018-05-31T21:05:08.235Z,4.80
2018-05-31T21:07:35.671Z,5.23
2018-05-31T21:10:03.108Z,5.07
2018-05-31T21:12:30.552Z,6.07
2018-05-31T21:14:57.990Z,6.17
2018-05-31T21:17:25.434Z,5.73
2018-05-31T21:19:52.876Z,6.73
2018-05-31T21:22:20.303Z,5.33
2018-05-31T21:24:48.510Z,5.33
2018-05-31T21:27:15.942Z,6.20
2018-05-31T21:29:43.394Z,6.50
2018-05-31T21:32:11.599Z,6.00
2018-05-31T21:34:39.048Z,6.30
2018-05-31T21:37:06.929Z,7.43
2018-05-31T21:39:34.379Z,6.00
2018-05-31T21:42:01.817Z,6.73
2018-05-31T21:44:29.258Z,6.27
2018-05-31T21:46:57.467Z,5.30
2018-05-31T21:49:24.918Z,6.40
2018-05-31T21:51:52.351Z,5.93
2018-05-31T21:54:20.561Z,5.77
2018-05-31T21:56:48.002Z,5.40
2018-05-31T21:59:15.448Z,6.00
2018-05-31T22:01:42.883Z,6.10
2018-05-31T22:04:10.330Z,5.70
2018-05-31T22:06:37.781Z,6.50
2018-05-31T22:09:05.235Z,5.83
2018-05-31T22:11:32.675Z,6.03
2018-05-31T22:14:00.124Z,5.97
2018-05-31T22:16:27.564Z,6.90
2018-05-31T22:18:55.008Z,6.27
2018-05-31T22:21:22.456Z,6.77
2018-05-31T22:23:50.659Z,6.23
2018-05-31T22:26:18.103Z,5.70
2018-05-31T22:28:45.550Z,6.30
2018-05-31T22:31:13.754Z,5.53
2018-05-31T22:33:41.198Z,6.20
2018-05-31T22:36:08.643Z,6.37
2018-05-31T22:38:36.848Z,5.87
2018-05-31T22:41:04.302Z,5.47
2018-05-31T22:43:31.751Z,5.73
2018-05-31T22:45:59.249Z,5.87
2018-05-31T22:48:26.631Z,5.93
2018-05-31T22:50:54.842Z,6.50
2018-05-31T22:53:22.279Z,6.00
2018-05-31T22:55:49.726Z,6.13
2018-05-31T22:58:17.932Z,5.97
2018-05-31T23:00:45.383Z,5.60
2018-05-31T23:03:12.819Z,5.90
2018-05-31T23:05:40.266Z,6.17
2018-05-31T23:08:08.476Z,6.87
2018-05-31T23:10:35.921Z,5.97
2018-05-31T23:13:03.372Z,6.93
2018-05-31T23:15:30.820Z,7.20
2018-05-31T23:17:59.019Z,7.00
2018-05-31T23:20:26.475Z,6.90
2018-05-31T23:22:53.921Z,8.00
2018-05-31T23:25:21.359Z,7.17
2018-05-31T23:27:49.559Z,5.87
2018-05-31T23:30:17.012Z,7.00
2018-05-31T23:32:44.456Z,7.40
2018-05-31T23:35:12.668Z,6.40
2018-05-31T23:37:40.113Z,5.97
2018-05-31T23:40:07.546Z,6.30
2018-05-31T23:42:34.982Z,6.07
2018-05-31T23:45:02.429Z,5.80
2018-05-31T23:47:29.876Z,6.30
2018-05-31T23:49:57.310Z,6.13
2018-05-31T23:52:24.758Z,6.40
2018-05-31T23:54:52.194Z,5.97
2018-05-31T23:57:19.640Z,5.67
2018-05-31T23:59:47.845Z,6.33
